sensor_id;sensor_type;location;lat;lon;timestamp;P1;durP1;ratioP1;P2;durP2;ratioP2
20609;SDS011;10463;52.378;9.688;2023-06-05T00:00:08;3.20;;;2.10;;
20609;SDS011;10463;52.378;9.688;2023-06-05T00:02:56;2.13;;;1.67;;
20609;SDS011;10463;52.378;9.688;2023-06-05T00:05:41;2.87;;;1.80;;
20609;SDS011;10463;52.378;9.688;2023-06-05T00:08:26;2.43;;;1.97;;
20609;SDS011;10463;52.378;9.688;2023-06-05T00:11:10;2.43;;;1.67;;
20609;SDS011;10463;52.378;9.688;2023-06-05T00:13:58;2.20;;;1.60;;
20609;SDS011;10463;52.378;9.688;2023-06-05T00:16:45;2.70;;;1.80;;
20609;SDS011;10463;52.378;9.688;2023-06-05T00:19:29;2.60;;;1.63;;
20609;SDS011;10463;52.378;9.688;2023-06-05T00:22:15;2.10;;;1.67;;
20609;SDS011;10463;52.378;9.688;2023-06-05T00:24:59;2.53;;;1.80;;
20609;SDS011;10463;52.378;9.688;2023-06-05T00:27:44;1.87;;;1.60;;
20609;SDS011;10463;52.378;9.688;2023-06-05T00:30:29;2.90;;;1.80;;
20609;SDS011;10463;52.378;9.688;2023-06-05T00:33:17;2.53;;;1.80;;
20609;SDS011;10463;52.378;9.688;2023-06-05T00:36:04;2.20;;;1.63;;
20609;SDS011;10463;52.378;9.688;2023-06-05T00:38:49;2.10;;;1.70;;
20609;SDS011;10463;52.378;9.688;2023-06-05T00:41:35;2.50;;;1.73;;
20609;SDS011;10463;52.378;9.688;2023-06-05T00:44:21;3.00;;;2.20;;
20609;SDS011;10463;52.378;9.688;2023-06-05T00:47:08;2.23;;;1.70;;
20609;SDS011;10463;52.378;9.688;2023-06-05T00:49:55;2.47;;;1.80;;
20609;SDS011;10463;52.378;9.688;2023-06-05T00:52:40;2.53;;;1.53;;
20609;SDS011;10463;52.378;9.688;2023-06-05T00:55:26;1.97;;;1.73;;
20609;SDS011;10463;52.378;9.688;2023-06-05T00:58:11;2.83;;;2.20;;
20609;SDS011;10463;52.378;9.688;2023-06-05T01:00:57;2.33;;;1.73;;
20609;SDS011;10463;52.378;9.688;2023-06-05T01:03:42;2.90;;;1.80;;
20609;SDS011;10463;52.378;9.688;2023-06-05T01:06:30;2.57;;;1.80;;
20609;SDS011;10463;52.378;9.688;2023-06-05T01:09:18;2.23;;;1.53;;
20609;SDS011;10463;52.378;9.688;2023-06-05T01:12:08;1.90;;;1.50;;
20609;SDS011;10463;52.378;9.688;2023-06-05T01:15:01;2.10;;;1.60;;
20609;SDS011;10463;52.378;9.688;2023-06-05T01:17:49;2.17;;;1.97;;
20609;SDS011;10463;52.378;9.688;2023-06-05T01:20:37;2.67;;;1.80;;
20609;SDS011;10463;52.378;9.688;2023-06-05T01:23:24;2.87;;;2.13;;
20609;SDS011;10463;52.378;9.688;2023-06-05T01:26:11;1.90;;;1.40;;
20609;SDS011;10463;52.378;9.688;2023-06-05T01:29:01;2.23;;;1.83;;
20609;SDS011;10463;52.378;9.688;2023-06-05T01:31:54;2.30;;;2.07;;
20609;SDS011;10463;52.378;9.688;2023-06-05T01:34:44;2.40;;;1.83;;
20609;SDS011;10463;52.378;9.688;2023-06-05T01:37:33;2.60;;;1.90;;
20609;SDS011;10463;52.378;9.688;2023-06-05T01:40:23;2.10;;;1.90;;
20609;SDS011;10463;52.378;9.688;2023-06-05T01:43:10;2.50;;;2.00;;
20609;SDS011;10463;52.378;9.688;2023-06-05T01:45:56;2.37;;;1.60;;
20609;SDS011;10463;52.378;9.688;2023-06-05T01:48:42;2.63;;;2.10;;
20609;SDS011;10463;52.378;9.688;2023-06-05T01:51:29;2.37;;;2.00;;
20609;SDS011;10463;52.378;9.688;2023-06-05T01:54:13;2.30;;;1.70;;
20609;SDS011;10463;52.378;9.688;2023-06-05T01:57:01;2.60;;;1.70;;
20609;SDS011;10463;52.378;9.688;2023-06-05T01:59:48;2.20;;;1.60;;
20609;SDS011;10463;52.378;9.688;2023-06-05T02:02:34;2.10;;;1.80;;
20609;SDS011;10463;52.378;9.688;2023-06-05T02:05:19;1.87;;;1.50;;
20609;SDS011;10463;52.378;9.688;2023-06-05T02:08:04;2.00;;;1.50;;
20609;SDS011;10463;52.378;9.688;2023-06-05T02:10:50;2.40;;;2.03;;
20609;SDS011;10463;52.378;9.688;2023-06-05T02:13:38;2.03;;;1.60;;
20609;SDS011;10463;52.378;9.688;2023-06-05T02:16:24;2.20;;;2.00;;
20609;SDS011;10463;52.378;9.688;2023-06-05T02:19:09;2.37;;;1.83;;
20609;SDS011;10463;52.378;9.688;2023-06-05T02:21:55;3.23;;;2.37;;
20609;SDS011;10463;52.378;9.688;2023-06-05T02:24:40;1.87;;;1.40;;
20609;SDS011;10463;52.378;9.688;2023-06-05T02:27:25;2.50;;;1.67;;
20609;SDS011;10463;52.378;9.688;2023-06-05T02:30:13;2.90;;;2.23;;
20609;SDS011;10463;52.378;9.688;2023-06-05T02:32:58;2.30;;;1.80;;
20609;SDS011;10463;52.378;9.688;2023-06-05T02:35:45;2.70;;;2.10;;
20609;SDS011;10463;52.378;9.688;2023-06-05T02:38:30;2.20;;;1.90;;
20609;SDS011;10463;52.378;9.688;2023-06-05T02:41:16;2.17;;;1.87;;
20609;SDS011;10463;52.378;9.688;2023-06-05T02:44:01;2.40;;;1.93;;
20609;SDS011;10463;52.378;9.688;2023-06-05T02:46:47;2.37;;;1.90;;
20609;SDS011;10463;52.378;9.688;2023-06-05T02:49:32;2.60;;;1.67;;
20609;SDS011;10463;52.378;9.688;2023-06-05T02:52:18;2.30;;;1.73;;
20609;SDS011;10463;52.378;9.688;2023-06-05T02:55:05;2.47;;;1.97;;
20609;SDS011;10463;52.378;9.688;2023-06-05T02:57:51;2.67;;;1.90;;
20609;SDS011;10463;52.378;9.688;2023-06-05T03:00:43;2.80;;;1.83;;
20609;SDS011;10463;52.378;9.688;2023-06-05T03:03:31;2.70;;;2.00;;
20609;SDS011;10463;52.378;9.688;2023-06-05T03:06:17;2.50;;;1.90;;
20609;SDS011;10463;52.378;9.688;2023-06-05T03:09:05;2.33;;;2.07;;
20609;SDS011;10463;52.378;9.688;2023-06-05T03:11:51;2.37;;;2.07;;
20609;SDS011;10463;52.378;9.688;2023-06-05T03:14:36;2.80;;;2.10;;
20609;SDS011;10463;52.378;9.688;2023-06-05T03:17:21;2.10;;;1.70;;
20609;SDS011;10463;52.378;9.688;2023-06-05T03:20:10;2.30;;;1.90;;
20609;SDS011;10463;52.378;9.688;2023-06-05T03:22:56;1.77;;;1.43;;
20609;SDS011;10463;52.378;9.688;2023-06-05T03:25:42;2.17;;;1.80;;
20609;SDS011;10463;52.378;9.688;2023-06-05T03:28:26;3.67;;;2.20;;
20609;SDS011;10463;52.378;9.688;2023-06-05T03:31:14;2.97;;;2.50;;
20609;SDS011;10463;52.378;9.688;2023-06-05T03:34:03;3.00;;;2.20;;
20609;SDS011;10463;52.378;9.688;2023-06-05T03:36:50;2.13;;;1.90;;
20609;SDS011;10463;52.378;9.688;2023-06-05T03:39:36;2.63;;;1.93;;
20609;SDS011;10463;52.378;9.688;2023-06-05T03:42:21;2.57;;;1.70;;
20609;SDS011;10463;52.378;9.688;2023-06-05T03:45:06;2.30;;;1.80;;
20609;SDS011;10463;52.378;9.688;2023-06-05T03:47:54;2.50;;;2.13;;
20609;SDS011;10463;52.378;9.688;2023-06-05T03:50:43;2.47;;;1.67;;
20609;SDS011;10463;52.378;9.688;2023-06-05T03:53:30;2.23;;;1.83;;
20609;SDS011;10463;52.378;9.688;2023-06-05T03:56:15;2.57;;;2.20;;
20609;SDS011;10463;52.378;9.688;2023-06-05T03:59:00;4.80;;;2.30;;
20609;SDS011;10463;52.378;9.688;2023-06-05T04:01:55;2.20;;;1.63;;
20609;SDS011;10463;52.378;9.688;2023-06-05T04:04:43;3.07;;;2.10;;
20609;SDS011;10463;52.378;9.688;2023-06-05T04:07:28;2.20;;;1.87;;
20609;SDS011;10463;52.378;9.688;2023-06-05T04:10:15;2.23;;;1.83;;
20609;SDS011;10463;52.378;9.688;2023-06-05T04:12:59;2.40;;;1.90;;
20609;SDS011;10463;52.378;9.688;2023-06-05T04:15:44;2.70;;;2.20;;
20609;SDS011;10463;52.378;9.688;2023-06-05T04:18:30;2.43;;;2.00;;
20609;SDS011;10463;52.378;9.688;2023-06-05T04:21:15;2.87;;;1.60;;
20609;SDS011;10463;52.378;9.688;2023-06-05T04:24:00;2.40;;;1.90;;
20609;SDS011;10463;52.378;9.688;2023-06-05T04:26:46;1.77;;;1.30;;
20609;SDS011;10463;52.378;9.688;2023-06-05T04:29:32;2.30;;;1.93;;
20609;SDS011;10463;52.378;9.688;2023-06-05T04:32:18;1.90;;;1.57;;
20609;SDS011;10463;52.378;9.688;2023-06-05T04:35:04;3.40;;;1.90;;
20609;SDS011;10463;52.378;9.688;2023-06-05T04:37:49;2.00;;;1.80;;
20609;SDS011;10463;52.378;9.688;2023-06-05T04:40:34;2.10;;;1.80;;
20609;SDS011;10463;52.378;9.688;2023-06-05T04:43:21;1.93;;;1.60;;
20609;SDS011;10463;52.378;9.688;2023-06-05T04:46:07;3.00;;;1.97;;
20609;SDS011;10463;52.378;9.688;2023-06-05T04:48:51;2.10;;;1.70;;
20609;SDS011;10463;52.378;9.688;2023-06-05T04:51:39;1.90;;;1.57;;
20609;SDS011;10463;52.378;9.688;2023-06-05T04:54:26;5.13;;;2.33;;
20609;SDS011;10463;52.378;9.688;2023-06-05T04:57:11;3.00;;;2.10;;
20609;SDS011;10463;52.378;9.688;2023-06-05T04:59:58;2.33;;;1.77;;
20609;SDS011;10463;52.378;9.688;2023-06-05T05:02:43;2.50;;;1.97;;
20609;SDS011;10463;52.378;9.688;2023-06-05T05:05:28;2.50;;;2.20;;
20609;SDS011;10463;52.378;9.688;2023-06-05T05:08:14;2.40;;;1.97;;
20609;SDS011;10463;52.378;9.688;2023-06-05T05:10:59;3.10;;;1.87;;
20609;SDS011;10463;52.378;9.688;2023-06-05T05:13:44;2.53;;;1.90;;
20609;SDS011;10463;52.378;9.688;2023-06-05T05:16:30;2.50;;;2.20;;
20609;SDS011;10463;52.378;9.688;2023-06-05T05:19:15;2.53;;;2.17;;
20609;SDS011;10463;52.378;9.688;2023-06-05T05:21:59;3.40;;;1.83;;
20609;SDS011;10463;52.378;9.688;2023-06-05T05:24:44;3.40;;;2.20;;
20609;SDS011;10463;52.378;9.688;2023-06-05T05:27:30;2.20;;;1.83;;
20609;SDS011;10463;52.378;9.688;2023-06-05T05:30:15;2.43;;;2.10;;
20609;SDS011;10463;52.378;9.688;2023-06-05T05:33:01;2.50;;;2.17;;
20609;SDS011;10463;52.378;9.688;2023-06-05T05:35:47;4.20;;;2.60;;
20609;SDS011;10463;52.378;9.688;2023-06-05T05:38:33;2.93;;;2.43;;
20609;SDS011;10463;52.378;9.688;2023-06-05T05:41:19;2.27;;;2.07;;
20609;SDS011;10463;52.378;9.688;2023-06-05T05:44:05;3.63;;;2.70;;
20609;SDS011;10463;52.378;9.688;2023-06-05T05:46:50;2.33;;;1.90;;
20609;SDS011;10463;52.378;9.688;2023-06-05T05:49:36;3.70;;;2.70;;
20609;SDS011;10463;52.378;9.688;2023-06-05T05:52:21;3.83;;;2.77;;
20609;SDS011;10463;52.378;9.688;2023-06-05T05:55:07;3.57;;;2.63;;
20609;SDS011;10463;52.378;9.688;2023-06-05T05:57:52;4.53;;;3.40;;
20609;SDS011;10463;52.378;9.688;2023-06-05T06:00:37;4.40;;;2.70;;
20609;SDS011;10463;52.378;9.688;2023-06-05T06:03:22;3.17;;;2.63;;
20609;SDS011;10463;52.378;9.688;2023-06-05T06:06:09;2.77;;;2.33;;
20609;SDS011;10463;52.378;9.688;2023-06-05T06:08:54;3.90;;;2.97;;
20609;SDS011;10463;52.378;9.688;2023-06-05T06:11:38;4.60;;;3.07;;
20609;SDS011;10463;52.378;9.688;2023-06-05T06:14:24;4.10;;;3.53;;
20609;SDS011;10463;52.378;9.688;2023-06-05T06:17:08;3.63;;;3.00;;
20609;SDS011;10463;52.378;9.688;2023-06-05T06:19:55;3.90;;;3.50;;
20609;SDS011;10463;52.378;9.688;2023-06-05T06:22:42;4.70;;;4.00;;
20609;SDS011;10463;52.378;9.688;2023-06-05T06:25:27;4.67;;;3.90;;
20609;SDS011;10463;52.378;9.688;2023-06-05T06:28:15;5.30;;;4.30;;
20609;SDS011;10463;52.378;9.688;2023-06-05T06:31:00;5.10;;;4.00;;
20609;SDS011;10463;52.378;9.688;2023-06-05T06:33:45;5.33;;;4.40;;
20609;SDS011;10463;52.378;9.688;2023-06-05T06:36:30;4.40;;;3.30;;
20609;SDS011;10463;52.378;9.688;2023-06-05T06:39:16;6.90;;;4.40;;
20609;SDS011;10463;52.378;9.688;2023-06-05T06:42:02;6.00;;;4.10;;
20609;SDS011;10463;52.378;9.688;2023-06-05T06:44:51;5.00;;;4.00;;
20609;SDS011;10463;52.378;9.688;2023-06-05T06:47:40;4.10;;;3.70;;
20609;SDS011;10463;52.378;9.688;2023-06-05T06:50:25;4.33;;;3.93;;
20609;SDS011;10463;52.378;9.688;2023-06-05T06:53:10;6.63;;;4.67;;
20609;SDS011;10463;52.378;9.688;2023-06-05T06:55:56;4.40;;;4.00;;
20609;SDS011;10463;52.378;9.688;2023-06-05T06:58:42;5.70;;;4.20;;
20609;SDS011;10463;52.378;9.688;2023-06-05T07:01:26;6.53;;;5.27;;
20609;SDS011;10463;52.378;9.688;2023-06-05T07:04:13;6.10;;;5.13;;
20609;SDS011;10463;52.378;9.688;2023-06-05T07:07:00;6.03;;;5.13;;
20609;SDS011;10463;52.378;9.688;2023-06-05T07:09:46;6.30;;;5.10;;
20609;SDS011;10463;52.378;9.688;2023-06-05T07:12:34;6.30;;;5.30;;
20609;SDS011;10463;52.378;9.688;2023-06-05T07:15:18;6.47;;;5.47;;
20609;SDS011;10463;52.378;9.688;2023-06-05T07:18:04;6.73;;;5.40;;
20609;SDS011;10463;52.378;9.688;2023-06-05T07:20:49;7.67;;;6.57;;
20609;SDS011;10463;52.378;9.688;2023-06-05T07:23:33;8.03;;;7.07;;
20609;SDS011;10463;52.378;9.688;2023-06-05T07:26:19;7.47;;;6.67;;
20609;SDS011;10463;52.378;9.688;2023-06-05T07:29:05;6.83;;;5.57;;
20609;SDS011;10463;52.378;9.688;2023-06-05T07:31:50;8.00;;;5.70;;
20609;SDS011;10463;52.378;9.688;2023-06-05T07:34:36;7.63;;;6.00;;
20609;SDS011;10463;52.378;9.688;2023-06-05T07:37:21;7.20;;;5.87;;
20609;SDS011;10463;52.378;9.688;2023-06-05T07:40:07;6.00;;;5.40;;
20609;SDS011;10463;52.378;9.688;2023-06-05T07:42:52;6.00;;;5.40;;
20609;SDS011;10463;52.378;9.688;2023-06-05T07:45:39;6.67;;;6.00;;
20609;SDS011;10463;52.378;9.688;2023-06-05T07:48:24;5.10;;;4.60;;
20609;SDS011;10463;52.378;9.688;2023-06-05T07:51:09;5.80;;;5.03;;
20609;SDS011;10463;52.378;9.688;2023-06-05T07:53:54;6.33;;;5.40;;
20609;SDS011;10463;52.378;9.688;2023-06-05T07:56:39;6.20;;;5.40;;
20609;SDS011;10463;52.378;9.688;2023-06-05T07:59:24;7.00;;;5.37;;
20609;SDS011;10463;52.378;9.688;2023-06-05T08:02:13;6.40;;;5.23;;
20609;SDS011;10463;52.378;9.688;2023-06-05T08:04:58;6.90;;;5.80;;
20609;SDS011;10463;52.378;9.688;2023-06-05T08:07:43;7.27;;;5.70;;
20609;SDS011;10463;52.378;9.688;2023-06-05T08:10:28;5.33;;;4.83;;
20609;SDS011;10463;52.378;9.688;2023-06-05T08:13:12;5.70;;;4.90;;
20609;SDS011;10463;52.378;9.688;2023-06-05T08:15:57;6.43;;;4.60;;
20609;SDS011;10463;52.378;9.688;2023-06-05T08:18:43;5.53;;;4.83;;
20609;SDS011;10463;52.378;9.688;2023-06-05T08:21:28;6.20;;;5.03;;
20609;SDS011;10463;52.378;9.688;2023-06-05T08:24:12;6.13;;;5.53;;
20609;SDS011;10463;52.378;9.688;2023-06-05T08:26:57;5.33;;;4.60;;
20609;SDS011;10463;52.378;9.688;2023-06-05T08:29:43;7.00;;;6.10;;
20609;SDS011;10463;52.378;9.688;2023-06-05T08:32:28;6.37;;;5.03;;
20609;SDS011;10463;52.378;9.688;2023-06-05T08:35:14;5.70;;;5.00;;
20609;SDS011;10463;52.378;9.688;2023-06-05T08:37:58;6.00;;;4.80;;
20609;SDS011;10463;52.378;9.688;2023-06-05T08:40:43;4.97;;;3.97;;
20609;SDS011;10463;52.378;9.688;2023-06-05T08:43:35;4.70;;;4.17;;
20609;SDS011;10463;52.378;9.688;2023-06-05T08:46:21;4.57;;;4.10;;
20609;SDS011;10463;52.378;9.688;2023-06-05T08:49:08;6.17;;;4.30;;
20609;SDS011;10463;52.378;9.688;2023-06-05T08:52:00;6.37;;;4.20;;
20609;SDS011;10463;52.378;9.688;2023-06-05T08:54:47;4.57;;;4.07;;
20609;SDS011;10463;52.378;9.688;2023-06-05T08:57:33;4.70;;;4.00;;
20609;SDS011;10463;52.378;9.688;2023-06-05T09:00:21;4.03;;;3.50;;
20609;SDS011;10463;52.378;9.688;2023-06-05T09:03:10;3.43;;;2.67;;
20609;SDS011;10463;52.378;9.688;2023-06-05T09:05:59;4.00;;;3.40;;
20609;SDS011;10463;52.378;9.688;2023-06-05T09:08:48;5.10;;;3.50;;
20609;SDS011;10463;52.378;9.688;2023-06-05T09:11:33;3.80;;;3.40;;
20609;SDS011;10463;52.378;9.688;2023-06-05T09:14:25;3.40;;;2.90;;
20609;SDS011;10463;52.378;9.688;2023-06-05T09:17:12;3.80;;;3.37;;
20609;SDS011;10463;52.378;9.688;2023-06-05T09:19:58;3.70;;;3.23;;
20609;SDS011;10463;52.378;9.688;2023-06-05T09:22:45;4.30;;;3.10;;
20609;SDS011;10463;52.378;9.688;2023-06-05T09:25:52;4.30;;;3.50;;
20609;SDS011;10463;52.378;9.688;2023-06-05T09:28:38;4.70;;;2.73;;
20609;SDS011;10463;52.378;9.688;2023-06-05T09:31:40;3.70;;;3.07;;
20609;SDS011;10463;52.378;9.688;2023-06-05T09:34:27;3.60;;;3.10;;
20609;SDS011;10463;52.378;9.688;2023-06-05T09:37:13;2.87;;;2.53;;
20609;SDS011;10463;52.378;9.688;2023-06-05T09:39:58;2.80;;;2.30;;
20609;SDS011;10463;52.378;9.688;2023-06-05T09:42:44;3.97;;;2.47;;
20609;SDS011;10463;52.378;9.688;2023-06-05T09:45:40;3.07;;;2.30;;
20609;SDS011;10463;52.378;9.688;2023-06-05T09:48:26;5.53;;;2.53;;
20609;SDS011;10463;52.378;9.688;2023-06-05T09:51:12;2.67;;;2.20;;
20609;SDS011;10463;52.378;9.688;2023-06-05T09:53:58;3.73;;;2.50;;
20609;SDS011;10463;52.378;9.688;2023-06-05T09:56:51;2.70;;;2.30;;
20609;SDS011;10463;52.378;9.688;2023-06-05T09:59:45;2.50;;;2.10;;
20609;SDS011;10463;52.378;9.688;2023-06-05T10:02:35;2.43;;;1.70;;
20609;SDS011;10463;52.378;9.688;2023-06-05T10:06:00;2.50;;;1.90;;
20609;SDS011;10463;52.378;9.688;2023-06-05T10:08:52;2.60;;;1.50;;
20609;SDS011;10463;52.378;9.688;2023-06-05T10:11:40;2.73;;;2.20;;
20609;SDS011;10463;52.378;9.688;2023-06-05T10:14:26;2.13;;;1.70;;
20609;SDS011;10463;52.378;9.688;2023-06-05T10:17:13;2.00;;;1.70;;
20609;SDS011;10463;52.378;9.688;2023-06-05T10:33:01;1.80;;;1.50;;
20609;SDS011;10463;52.378;9.688;2023-06-05T10:36:18;2.13;;;1.60;;
20609;SDS011;10463;52.378;9.688;2023-06-05T10:39:28;2.57;;;1.70;;
20609;SDS011;10463;52.378;9.688;2023-06-05T10:42:22;1.90;;;1.53;;
20609;SDS011;10463;52.378;9.688;2023-06-05T10:45:08;2.47;;;1.70;;
20609;SDS011;10463;52.378;9.688;2023-06-05T10:47:53;2.20;;;1.73;;
20609;SDS011;10463;52.378;9.688;2023-06-05T10:50:40;2.40;;;2.10;;
20609;SDS011;10463;52.378;9.688;2023-06-05T10:53:45;2.40;;;1.87;;
20609;SDS011;10463;52.378;9.688;2023-06-05T10:56:56;1.83;;;1.47;;
20609;SDS011;10463;52.378;9.688;2023-06-05T10:59:47;2.63;;;1.30;;
20609;SDS011;10463;52.378;9.688;2023-06-05T11:02:51;3.40;;;1.90;;
20609;SDS011;10463;52.378;9.688;2023-06-05T11:05:37;2.17;;;1.60;;
20609;SDS011;10463;52.378;9.688;2023-06-05T11:09:07;2.80;;;2.00;;
20609;SDS011;10463;52.378;9.688;2023-06-05T11:11:59;2.10;;;1.60;;
20609;SDS011;10463;52.378;9.688;2023-06-05T11:14:46;2.63;;;1.93;;
20609;SDS011;10463;52.378;9.688;2023-06-05T11:17:32;2.50;;;2.07;;
20609;SDS011;10463;52.378;9.688;2023-06-05T11:24:17;2.30;;;1.87;;
20609;SDS011;10463;52.378;9.688;2023-06-05T11:27:02;1.90;;;1.60;;
20609;SDS011;10463;52.378;9.688;2023-06-05T11:29:47;2.17;;;1.73;;
20609;SDS011;10463;52.378;9.688;2023-06-05T11:32:36;2.70;;;1.30;;
20609;SDS011;10463;52.378;9.688;2023-06-05T11:35:21;2.50;;;1.67;;
20609;SDS011;10463;52.378;9.688;2023-06-05T11:38:07;2.00;;;1.60;;
20609;SDS011;10463;52.378;9.688;2023-06-05T11:40:54;2.03;;;1.50;;
20609;SDS011;10463;52.378;9.688;2023-06-05T11:43:43;2.23;;;1.83;;
20609;SDS011;10463;52.378;9.688;2023-06-05T11:46:39;2.40;;;1.90;;
20609;SDS011;10463;52.378;9.688;2023-06-05T11:49:25;2.00;;;1.70;;
20609;SDS011;10463;52.378;9.688;2023-06-05T11:52:17;2.33;;;1.90;;
20609;SDS011;10463;52.378;9.688;2023-06-05T11:55:13;2.70;;;1.83;;
20609;SDS011;10463;52.378;9.688;2023-06-05T11:58:01;2.50;;;1.40;;
20609;SDS011;10463;52.378;9.688;2023-06-05T12:00:46;2.40;;;1.80;;
20609;SDS011;10463;52.378;9.688;2023-06-05T12:03:31;2.40;;;1.80;;
20609;SDS011;10463;52.378;9.688;2023-06-05T12:06:16;2.13;;;1.90;;
20609;SDS011;10463;52.378;9.688;2023-06-05T12:09:08;3.17;;;2.00;;
20609;SDS011;10463;52.378;9.688;2023-06-05T12:12:04;2.50;;;1.80;;
20609;SDS011;10463;52.378;9.688;2023-06-05T12:14:51;2.67;;;1.73;;
20609;SDS011;10463;52.378;9.688;2023-06-05T12:17:38;2.43;;;1.73;;
20609;SDS011;10463;52.378;9.688;2023-06-05T12:20:23;2.60;;;1.77;;
20609;SDS011;10463;52.378;9.688;2023-06-05T12:23:10;3.70;;;1.47;;
20609;SDS011;10463;52.378;9.688;2023-06-05T12:26:03;1.87;;;1.30;;
20609;SDS011;10463;52.378;9.688;2023-06-05T12:28:49;2.70;;;2.13;;
20609;SDS011;10463;52.378;9.688;2023-06-05T12:31:49;3.00;;;2.17;;
20609;SDS011;10463;52.378;9.688;2023-06-05T12:34:44;2.20;;;1.50;;
20609;SDS011;10463;52.378;9.688;2023-06-05T12:37:30;2.40;;;1.70;;
20609;SDS011;10463;52.378;9.688;2023-06-05T12:40:18;2.17;;;1.70;;
20609;SDS011;10463;52.378;9.688;2023-06-05T12:43:16;2.33;;;1.60;;
20609;SDS011;10463;52.378;9.688;2023-06-05T12:46:05;1.80;;;1.50;;
20609;SDS011;10463;52.378;9.688;2023-06-05T12:48:53;2.10;;;1.87;;
20609;SDS011;10463;52.378;9.688;2023-06-05T12:51:38;2.20;;;1.60;;
20609;SDS011;10463;52.378;9.688;2023-06-05T12:54:24;2.30;;;1.80;;
20609;SDS011;10463;52.378;9.688;2023-06-05T12:57:08;1.90;;;1.53;;
20609;SDS011;10463;52.378;9.688;2023-06-05T12:59:54;2.50;;;1.87;;
20609;SDS011;10463;52.378;9.688;2023-06-05T13:02:41;2.00;;;1.60;;
20609;SDS011;10463;52.378;9.688;2023-06-05T13:05:30;1.90;;;1.60;;
20609;SDS011;10463;52.378;9.688;2023-06-05T13:08:15;2.23;;;1.50;;
20609;SDS011;10463;52.378;9.688;2023-06-05T13:11:00;2.43;;;1.83;;
20609;SDS011;10463;52.378;9.688;2023-06-05T13:13:45;2.50;;;1.87;;
20609;SDS011;10463;52.378;9.688;2023-06-05T13:16:29;2.27;;;1.63;;
20609;SDS011;10463;52.378;9.688;2023-06-05T13:19:14;1.90;;;1.53;;
20609;SDS011;10463;52.378;9.688;2023-06-05T13:22:00;2.40;;;1.83;;
20609;SDS011;10463;52.378;9.688;2023-06-05T13:24:45;3.00;;;1.90;;
20609;SDS011;10463;52.378;9.688;2023-06-05T13:27:30;2.33;;;1.83;;
20609;SDS011;10463;52.378;9.688;2023-06-05T13:30:15;2.60;;;2.20;;
20609;SDS011;10463;52.378;9.688;2023-06-05T13:32:59;2.63;;;1.50;;
20609;SDS011;10463;52.378;9.688;2023-06-05T13:35:44;2.47;;;1.73;;
20609;SDS011;10463;52.378;9.688;2023-06-05T13:38:31;2.33;;;1.80;;
20609;SDS011;10463;52.378;9.688;2023-06-05T13:41:15;4.23;;;2.50;;
20609;SDS011;10463;52.378;9.688;2023-06-05T13:44:00;1.97;;;1.60;;
20609;SDS011;10463;52.378;9.688;2023-06-05T13:46:45;3.50;;;2.00;;
20609;SDS011;10463;52.378;9.688;2023-06-05T13:49:31;1.80;;;1.50;;
20609;SDS011;10463;52.378;9.688;2023-06-05T13:52:16;3.43;;;1.77;;
20609;SDS011;10463;52.378;9.688;2023-06-05T13:55:03;2.40;;;1.80;;
20609;SDS011;10463;52.378;9.688;2023-06-05T13:57:48;1.80;;;1.47;;
20609;SDS011;10463;52.378;9.688;2023-06-05T14:00:33;2.20;;;1.80;;
20609;SDS011;10463;52.378;9.688;2023-06-05T14:03:19;3.33;;;1.83;;
20609;SDS011;10463;52.378;9.688;2023-06-05T14:06:05;2.80;;;2.30;;
20609;SDS011;10463;52.378;9.688;2023-06-05T14:08:49;2.33;;;1.80;;
20609;SDS011;10463;52.378;9.688;2023-06-05T14:11:36;3.87;;;2.07;;
20609;SDS011;10463;52.378;9.688;2023-06-05T14:14:22;2.40;;;1.70;;
20609;SDS011;10463;52.378;9.688;2023-06-05T14:17:08;2.20;;;1.90;;
20609;SDS011;10463;52.378;9.688;2023-06-05T14:19:52;2.73;;;2.03;;
20609;SDS011;10463;52.378;9.688;2023-06-05T14:22:37;2.17;;;1.87;;
20609;SDS011;10463;52.378;9.688;2023-06-05T14:25:23;2.23;;;1.83;;
20609;SDS011;10463;52.378;9.688;2023-06-05T14:28:11;2.30;;;2.10;;
20609;SDS011;10463;52.378;9.688;2023-06-05T14:30:56;1.90;;;1.67;;
20609;SDS011;10463;52.378;9.688;2023-06-05T14:33:41;2.40;;;1.70;;
20609;SDS011;10463;52.378;9.688;2023-06-05T14:36:26;2.27;;;1.73;;
20609;SDS011;10463;52.378;9.688;2023-06-05T14:39:11;3.23;;;2.20;;
20609;SDS011;10463;52.378;9.688;2023-06-05T14:41:57;1.87;;;1.40;;
20609;SDS011;10463;52.378;9.688;2023-06-05T14:44:44;2.17;;;1.77;;
20609;SDS011;10463;52.378;9.688;2023-06-05T14:47:30;2.13;;;1.70;;
20609;SDS011;10463;52.378;9.688;2023-06-05T14:50:15;3.30;;;2.27;;
20609;SDS011;10463;52.378;9.688;2023-06-05T14:53:01;3.13;;;1.93;;
20609;SDS011;10463;52.378;9.688;2023-06-05T14:55:47;1.67;;;1.33;;
20609;SDS011;10463;52.378;9.688;2023-06-05T14:58:33;2.27;;;1.60;;
20609;SDS011;10463;52.378;9.688;2023-06-05T15:01:20;2.23;;;1.87;;
20609;SDS011;10463;52.378;9.688;2023-06-05T15:04:06;2.00;;;1.80;;
20609;SDS011;10463;52.378;9.688;2023-06-05T15:06:51;2.93;;;1.80;;
20609;SDS011;10463;52.378;9.688;2023-06-05T15:09:38;2.00;;;1.50;;
20609;SDS011;10463;52.378;9.688;2023-06-05T15:12:26;3.13;;;1.80;;
20609;SDS011;10463;52.378;9.688;2023-06-05T15:15:11;2.03;;;1.63;;
20609;SDS011;10463;52.378;9.688;2023-06-05T15:17:59;2.30;;;2.10;;
20609;SDS011;10463;52.378;9.688;2023-06-05T15:20:45;3.90;;;2.10;;
20609;SDS011;10463;52.378;9.688;2023-06-05T15:23:31;2.90;;;1.80;;
20609;SDS011;10463;52.378;9.688;2023-06-05T15:26:17;2.10;;;1.90;;
20609;SDS011;10463;52.378;9.688;2023-06-05T15:29:03;2.50;;;2.10;;
20609;SDS011;10463;52.378;9.688;2023-06-05T15:31:48;2.80;;;2.20;;
20609;SDS011;10463;52.378;9.688;2023-06-05T15:34:36;2.10;;;1.80;;
20609;SDS011;10463;52.378;9.688;2023-06-05T15:37:24;2.60;;;2.20;;
20609;SDS011;10463;52.378;9.688;2023-06-05T15:40:10;3.10;;;2.40;;
20609;SDS011;10463;52.378;9.688;2023-06-05T15:43:03;2.50;;;2.20;;
20609;SDS011;10463;52.378;9.688;2023-06-05T15:45:50;2.30;;;2.07;;
20609;SDS011;10463;52.378;9.688;2023-06-05T15:48:40;1.97;;;1.70;;
20609;SDS011;10463;52.378;9.688;2023-06-05T15:51:27;2.40;;;2.03;;
20609;SDS011;10463;52.378;9.688;2023-06-05T15:54:13;2.33;;;2.00;;
20609;SDS011;10463;52.378;9.688;2023-06-05T15:57:06;2.23;;;2.03;;
20609;SDS011;10463;52.378;9.688;2023-06-05T15:59:52;2.73;;;2.20;;
20609;SDS011;10463;52.378;9.688;2023-06-05T16:02:38;2.70;;;2.03;;
20609;SDS011;10463;52.378;9.688;2023-06-05T16:05:24;2.23;;;1.70;;
20609;SDS011;10463;52.378;9.688;2023-06-05T16:08:11;2.80;;;1.93;;
20609;SDS011;10463;52.378;9.688;2023-06-05T16:10:56;2.60;;;2.03;;
20609;SDS011;10463;52.378;9.688;2023-06-05T16:13:45;3.40;;;2.30;;
20609;SDS011;10463;52.378;9.688;2023-06-05T16:16:31;2.23;;;1.90;;
20609;SDS011;10463;52.378;9.688;2023-06-05T16:19:16;2.20;;;1.73;;
20609;SDS011;10463;52.378;9.688;2023-06-05T16:22:04;2.27;;;2.07;;
20609;SDS011;10463;52.378;9.688;2023-06-05T16:24:51;3.37;;;2.30;;
20609;SDS011;10463;52.378;9.688;2023-06-05T16:27:39;2.17;;;1.83;;
20609;SDS011;10463;52.378;9.688;2023-06-05T16:30:25;2.87;;;1.97;;
20609;SDS011;10463;52.378;9.688;2023-06-05T16:33:11;2.00;;;1.80;;
20609;SDS011;10463;52.378;9.688;2023-06-05T16:35:57;2.00;;;1.80;;
20609;SDS011;10463;52.378;9.688;2023-06-05T16:38:43;2.50;;;2.00;;
20609;SDS011;10463;52.378;9.688;2023-06-05T16:41:31;2.27;;;1.97;;
20609;SDS011;10463;52.378;9.688;2023-06-05T16:44:16;2.20;;;1.70;;
20609;SDS011;10463;52.378;9.688;2023-06-05T16:47:03;2.63;;;2.00;;
20609;SDS011;10463;52.378;9.688;2023-06-05T16:49:49;2.20;;;1.77;;
20609;SDS011;10463;52.378;9.688;2023-06-05T16:52:35;2.30;;;1.80;;
20609;SDS011;10463;52.378;9.688;2023-06-05T16:55:21;2.67;;;1.97;;
20609;SDS011;10463;52.378;9.688;2023-06-05T16:58:09;2.27;;;1.60;;
20609;SDS011;10463;52.378;9.688;2023-06-05T17:00:54;2.27;;;1.77;;
20609;SDS011;10463;52.378;9.688;2023-06-05T17:03:40;2.27;;;1.90;;